^^
Datos históricos de la estación: Murcia-Puente Tocinos
Diario Informe para Agosto 02, 2021 Unidades:  Métrico    Ingés   Ambas
Diario Semanal Mensual Anual
  Máxima: Mínima: Promedio:
Temperatura: 29.3 °C 22.8 °C 25.6 °C
Punto de rocio: 20.6 °C 16.9 °C 18.7 °C
Humedad: 80% 47.7% 67%
Velocidad viento: 19.8km/h 3.2km/h 10.4km/h
Racha viento: 35.9km/h - -
Viento- - NE
Presión: 1014.1 hPa 1012.3 hPa -
Precipitación: 0.0 mm    
 
 
Tabla de datos para Agosto 02, 2021
Hora Temperatura Punto de rocio Presión Viento Velocidad viento Racha viento Humedad Intensidad lluvia(por hora) Nubes
00:04 24.3 °C 20.5 °C 1013.3 hPa NNE 9.5 km/h 14.8 km/h 79% 0.0 mm
00:09 24.3 °C 20.4 °C 1013.3 hPa NE 8.8 km/h 14.5 km/h 79% 0.0 mm
00:14 24.3 °C 20.5 °C 1013.2 hPa NNE 8.4 km/h 17.7 km/h 79.3% 0.0 mm
00:19 24.3 °C 20.6 °C 1013.2 hPa NE 8.6 km/h 14.8 km/h 80% 0.0 mm
00:24 24.3 °C 20.6 °C 1013.2 hPa NE 8.7 km/h 11.9 km/h 80% 0.0 mm
00:29 24.3 °C 20.6 °C 1013.2 hPa NE 7.6 km/h 11.3 km/h 80% 0.0 mm
00:34 24.3 °C 20.6 °C 1013.2 hPa NE 6.9 km/h 11.9 km/h 80% 0.0 mm
00:39 24.3 °C 20.6 °C 1013.2 hPa NE 7.4 km/h 13 km/h 80% 0.0 mm
00:44 24.3 °C 20.6 °C 1013.2 hPa NE 7.6 km/h 13.7 km/h 80% 0.0 mm
00:49 24.3 °C 20.6 °C 1013.2 hPa NE 7.6 km/h 14.5 km/h 80% 0.0 mm
00:54 24.3 °C 20.6 °C 1013.2 hPa NE 7.6 km/h 16.7 km/h 80% 0.0 mm
00:59 24.2 °C 20.6 °C 1013.2 hPa NNE 8.3 km/h 16.7 km/h 80% 0.0 mm
01:04 24.2 °C 20.6 °C 1013.2 hPa NE 8.7 km/h 16.1 km/h 80% 0.0 mm
01:09 24.2 °C 20.6 °C 1013.3 hPa NNE 9.2 km/h 16.7 km/h 80% 0.0 mm
01:14 24.2 °C 20.6 °C 1013.3 hPa NE 9.5 km/h 16.1 km/h 80% 0.0 mm
01:19 24.1 °C 20.5 °C 1013.3 hPa NE 8.2 km/h 12.9 km/h 80% 0.0 mm
01:24 24.1 °C 20.3 °C 1013.3 hPa NNE 7.6 km/h 15.6 km/h 79.2% 0.0 mm
01:29 24.1 °C 20.2 °C 1013.1 hPa NE 7.6 km/h 16.1 km/h 79% 0.0 mm
01:34 24.1 °C 20.2 °C 1013.1 hPa NNE 7.6 km/h 14.8 km/h 79% 0.0 mm
01:39 24.1 °C 20.2 °C 1013.1 hPa NNE 8.1 km/h 14.5 km/h 79% 0.0 mm
01:44 24.1 °C 20.2 °C 1013.1 hPa NNE 8.4 km/h 14.5 km/h 79% 0.0 mm
01:49 24.1 °C 20.2 °C 1013.1 hPa NNE 7.9 km/h 14.8 km/h 79% 0.0 mm
01:54 24 °C 20.1 °C 1013.2 hPa NNE 7.6 km/h 14.5 km/h 79% 0.0 mm
01:59 24 °C 20.1 °C 1013.2 hPa NNE 8.3 km/h 14 km/h 79% 0.0 mm
02:04 23.9 °C 20.1 °C 1013.2 hPa NNE 8.7 km/h 14.8 km/h 79% 0.0 mm
02:09 23.9 °C 19.9 °C 1013.3 hPa NNE 9.2 km/h 14.8 km/h 78.1% 0.0 mm
02:14 23.9 °C 19.8 °C 1013.3 hPa NE 9.5 km/h 14.5 km/h 78% 0.0 mm
02:19 23.9 °C 19.8 °C 1013.3 hPa NE 8.4 km/h 14.8 km/h 77.9% 0.0 mm
02:24 23.9 °C 19.6 °C 1013.3 hPa NNE 7.6 km/h 14.5 km/h 77% 0.0 mm
02:29 23.9 °C 19.6 °C 1013.2 hPa NE 8.3 km/h 19 km/h 77% 0.0 mm
02:34 23.9 °C 19.4 °C 1013.2 hPa NNE 8.7 km/h 19.3 km/h 76.2% 0.0 mm
02:39 23.9 °C 19.4 °C 1013.2 hPa NE 10.1 km/h 16.7 km/h 76% 0.0 mm
02:44 23.9 °C 19.4 °C 1013.1 hPa NE 11.1 km/h 16.1 km/h 76% 0.0 mm
02:49 23.9 °C 19.4 °C 1013.1 hPa NNE 9.4 km/h 13.7 km/h 76% 0.0 mm
02:54 23.8 °C 19.4 °C 1013.1 hPa NE 8.4 km/h 16.7 km/h 76% 0.0 mm
02:59 23.8 °C 19.3 °C 1013.0 hPa NNE 9.1 km/h 16.1 km/h 75.7% 0.0 mm
03:04 23.8 °C 19.1 °C 1013.0 hPa NE 9.5 km/h 14.5 km/h 75% 0.0 mm
03:09 23.8 °C 19.1 °C 1013.0 hPa NE 8.8 km/h 14.8 km/h 75% 0.0 mm
03:14 23.8 °C 19.1 °C 1013.0 hPa NE 8.4 km/h 14.5 km/h 75% 0.0 mm
03:19 23.8 °C 19.1 °C 1013.0 hPa NE 8.4 km/h 14.5 km/h 75% 0.0 mm
03:24 23.8 °C 19.1 °C 1013.0 hPa NNE 8.4 km/h 14.8 km/h 75% 0.0 mm
03:29 23.7 °C 19 °C 1013.0 hPa NNE 8.4 km/h 14.5 km/h 75% 0.0 mm
03:34 23.7 °C 19 °C 1013.0 hPa NNE 8.4 km/h 15.6 km/h 75% 0.0 mm
03:39 23.7 °C 18.9 °C 1013.2 hPa NNE 9 km/h 16.1 km/h 75% 0.0 mm
03:44 23.6 °C 18.9 °C 1013.2 hPa NNE 9.5 km/h 16.1 km/h 75% 0.0 mm
03:49 23.6 °C 18.9 °C 1013.2 hPa NNE 9 km/h 14.8 km/h 75% 0.0 mm
03:54 23.6 °C 18.9 °C 1013.2 hPa NNE 8.7 km/h 14.5 km/h 75% 0.0 mm
03:59 23.5 °C 18.8 °C 1013.1 hPa NNE 8 km/h 11.9 km/h 75% 0.0 mm
04:04 23.5 °C 18.8 °C 1013.1 hPa NNE 7.6 km/h 15.6 km/h 75% 0.0 mm
04:09 23.5 °C 18.8 °C 1013.3 hPa NNE 8.1 km/h 16.1 km/h 75% 0.0 mm
04:14 23.4 °C 18.7 °C 1013.3 hPa NNE 8.4 km/h 14.8 km/h 75% 0.0 mm
04:19 23.4 °C 18.7 °C 1013.3 hPa NNE 9 km/h 16.7 km/h 75% 0.0 mm
04:24 23.4 °C 18.7 °C 1013.3 hPa NNE 9.5 km/h 16.1 km/h 75% 0.0 mm
04:29 23.4 °C 18.7 °C 1013.2 hPa NE 9 km/h 13.7 km/h 75% 0.0 mm
04:34 23.4 °C 18.7 °C 1013.2 hPa NNE 8.7 km/h 14.5 km/h 75% 0.0 mm
04:39 23.4 °C 18.7 °C 1013.3 hPa NE 8.5 km/h 14.8 km/h 75% 0.0 mm
04:44 23.4 °C 18.9 °C 1013.3 hPa NE 8.4 km/h 14.5 km/h 75.7% 0.0 mm
04:49 23.4 °C 18.9 °C 1013.3 hPa NE 8.6 km/h 13 km/h 76% 0.0 mm
04:54 23.4 °C 18.9 °C 1013.3 hPa NE 8.7 km/h 13 km/h 76% 0.0 mm
04:59 23.3 °C 18.8 °C 1013.1 hPa NE 8.5 km/h 13 km/h 76% 0.0 mm
05:04 23.3 °C 18.8 °C 1013.1 hPa NNE 8.4 km/h 13.7 km/h 76% 0.0 mm
05:09 23.3 °C 18.9 °C 1013.1 hPa NE 8.6 km/h 14.8 km/h 76% 0.0 mm
05:14 23.3 °C 18.8 °C 1013.0 hPa NE 8.7 km/h 14.8 km/h 76% 0.0 mm
05:19 23.3 °C 18.9 °C 1013.0 hPa NE 8.5 km/h 14.5 km/h 76% 0.0 mm
05:24 23.3 °C 18.9 °C 1013.0 hPa NNE 8.4 km/h 11.9 km/h 76% 0.0 mm
05:29 23.3 °C 18.8 °C 1013.0 hPa NE 7.5 km/h 11.3 km/h 76% 0.0 mm
05:34 23.3 °C 18.8 °C 1013.0 hPa NE 6.9 km/h 11.3 km/h 76% 0.0 mm
05:39 23.2 °C 18.9 °C 1013.0 hPa NE 6.9 km/h 13 km/h 76.7% 0.0 mm
05:44 23.2 °C 18.9 °C 1012.9 hPa NE 6.9 km/h 12.9 km/h 77% 0.0 mm
05:49 23.2 °C 18.9 °C 1012.9 hPa NE 6.9 km/h 11.3 km/h 77% 0.0 mm
05:54 23.1 °C 18.9 °C 1012.9 hPa NE 6.9 km/h 13 km/h 77% 0.0 mm
05:59 23.1 °C 18.8 °C 1012.9 hPa NNE 6.9 km/h 12.9 km/h 77% 0.0 mm
06:04 23.1 °C 18.8 °C 1012.9 hPa NE 6.9 km/h 8.4 km/h 77% 0.0 mm
06:09 23.1 °C 18.8 °C 1013.0 hPa NE 5.8 km/h 11.1 km/h 77% 0.0 mm
06:14 23.1 °C 18.8 °C 1013.0 hPa NE 5 km/h 11.3 km/h 77% 0.0 mm
06:19 23 °C 18.7 °C 1013.0 hPa NNE 5.9 km/h 9.7 km/h 77% 0.0 mm
06:24 22.9 °C 18.7 °C 1013.0 hPa NNE 6.5 km/h 8.4 km/h 77.2% 0.0 mm
06:29 22.9 °C 18.8 °C 1012.9 hPa NNE 5.6 km/h 9.5 km/h 78% 0.0 mm
06:34 22.8 °C 18.8 °C 1012.9 hPa NE 5 km/h 9.7 km/h 78% 0.0 mm
06:39 22.8 °C 18.8 °C 1012.9 hPa NE 5.9 km/h 9.3 km/h 78% 0.0 mm
06:44 22.8 °C 18.8 °C 1012.8 hPa NNE 6.5 km/h 9.7 km/h 78% 0.0 mm
06:49 22.8 °C 18.8 °C 1012.8 hPa North 5.4 km/h 8.4 km/h 78% 0.0 mm
06:54 22.8 °C 18.8 °C 1012.9 hPa NE 4.7 km/h 9.3 km/h 78% 0.0 mm
06:59 22.8 °C 18.8 °C 1012.9 hPa NE 4.7 km/h 9.7 km/h 78% 0.0 mm
07:04 22.8 °C 18.8 °C 1012.9 hPa NNE 4.6 km/h 9.7 km/h 78% 0.0 mm
07:09 22.8 °C 18.8 °C 1013.0 hPa NNE 4.9 km/h 8 km/h 78% 0.0 mm
07:14 22.8 °C 18.8 °C 1013.0 hPa NE 5 km/h 8 km/h 78% 0.0 mm
07:19 22.8 °C 18.8 °C 1013.0 hPa NE 4.8 km/h 8.4 km/h 78% 0.0 mm
07:24 22.8 °C 18.7 °C 1013.0 hPa NNE 4.7 km/h 8.4 km/h 77.5% 0.0 mm
07:29 22.9 °C 18.7 °C 1013.0 hPa NNE 4.7 km/h 8 km/h 77% 0.0 mm
07:34 22.9 °C 18.7 °C 1013.0 hPa NE 4.7 km/h 8 km/h 77% 0.0 mm
07:39 22.9 °C 18.7 °C 1013.2 hPa NNE 4.7 km/h 8 km/h 77% 0.0 mm
07:44 23 °C 18.7 °C 1013.2 hPa North 4.7 km/h 8 km/h 77% 0.0 mm
07:49 23.1 °C 18.8 °C 1013.2 hPa North 3.7 km/h 6.4 km/h 77% 0.0 mm
07:54 23.1 °C 18.8 °C 1013.4 hPa North 3.2 km/h 7.6 km/h 77% 0.0 mm
07:59 23.1 °C 18.6 °C 1013.4 hPa North 3.2 km/h 8 km/h 76% 0.0 mm
08:04 23.1 °C 18.6 °C 1013.4 hPa NNE 3.2 km/h 8 km/h 76% 0.0 mm
08:09 23.1 °C 18.6 °C 1013.4 hPa NNE 4.2 km/h 8 km/h 76.1% 0.0 mm
08:14 23.2 °C 18.8 °C 1013.4 hPa NNE 4.7 km/h 8 km/h 76.4% 0.0 mm
08:19 23.3 °C 18.8 °C 1013.4 hPa North 4.1 km/h 9.3 km/h 76% 0.0 mm
08:24 23.3 °C 18.8 °C 1013.5 hPa NNE 3.9 km/h 9.7 km/h 76% 0.0 mm
08:29 23.3 °C 18.8 °C 1013.5 hPa NNE 5 km/h 9.7 km/h 76% 0.0 mm
08:34 23.3 °C 18.8 °C 1013.5 hPa NNE 5.8 km/h 9.7 km/h 76% 0.0 mm
08:39 23.3 °C 18.9 °C 1013.7 hPa NNE 5.2 km/h 8 km/h 76% 0.0 mm
08:44 23.4 °C 18.9 °C 1013.7 hPa NE 5 km/h 10.3 km/h 76% 0.0 mm
08:49 23.4 °C 18.9 °C 1013.7 hPa NNE 5.5 km/h 11.3 km/h 76% 0.0 mm
08:54 23.4 °C 18.9 °C 1013.9 hPa NE 5.8 km/h 9.7 km/h 76% 0.0 mm
08:59 23.4 °C 19 °C 1013.9 hPa NNE 5.2 km/h 10 km/h 76% 0.0 mm
09:04 23.6 °C 19.1 °C 1013.9 hPa NE 5 km/h 10 km/h 76% 0.0 mm
09:09 23.6 °C 19.1 °C 1013.9 hPa NE 6.3 km/h 11.9 km/h 76% 0.0 mm
09:14 23.7 °C 19.1 °C 1013.9 hPa NNE 6.9 km/h 14 km/h 75.7% 0.0 mm
09:19 23.7 °C 19 °C 1013.9 hPa NNE 7.8 km/h 17.2 km/h 75% 0.0 mm
09:24 23.7 °C 19 °C 1013.9 hPa NE 8.4 km/h 17.7 km/h 75% 0.0 mm
09:29 23.8 °C 19.1 °C 1013.9 hPa NNE 9.1 km/h 14.5 km/h 75% 0.0 mm
09:34 23.8 °C 19.1 °C 1013.9 hPa NNE 9.5 km/h 14.8 km/h 75% 0.0 mm
09:39 23.9 °C 19.1 °C 1014.0 hPa NE 9 km/h 15.6 km/h 74.6% 0.0 mm
09:44 23.9 °C 19 °C 1014.0 hPa NE 8.7 km/h 19 km/h 74.1% 0.0 mm
09:49 24.1 °C 19.2 °C 1014.0 hPa NE 9.7 km/h 19.3 km/h 74.4% 0.0 mm
09:54 24.3 °C 19.3 °C 1014.0 hPa NNE 10.3 km/h 19.3 km/h 73.3% 0.0 mm
09:59 24.4 °C 19.2 °C 1014.0 hPa NNE 10.1 km/h 19.3 km/h 73% 0.0 mm
10:04 24.5 °C 19.3 °C 1014.0 hPa NE 10 km/h 17.7 km/h 73% 0.0 mm
10:09 24.7 °C 19.4 °C 1014.1 hPa NE 9.7 km/h 16.1 km/h 72.2% 0.0 mm
10:14 24.7 °C 19.3 °C 1014.1 hPa NE 9.5 km/h 19 km/h 72% 0.0 mm
10:19 24.8 °C 19.4 °C 1014.1 hPa NE 10.6 km/h 19.3 km/h 72% 0.0 mm
10:24 25 °C 19.4 °C 1014.1 hPa NNE 11.1 km/h 17.2 km/h 71.2% 0.0 mm
10:29 25.2 °C 19.5 °C 1014.0 hPa NNE 11.1 km/h 20.9 km/h 71% 0.0 mm
10:34 25.5 °C 19.7 °C 1014.0 hPa NE 11.1 km/h 20.9 km/h 70.3% 0.0 mm
10:39 25.7 °C 19.5 °C 1014.0 hPa NE 10 km/h 19 km/h 68.5% 0.0 mm
10:44 25.8 °C 19.4 °C 1013.9 hPa NE 9.5 km/h 20.9 km/h 67.8% 0.0 mm
10:49 25.7 °C 19.3 °C 1013.9 hPa NNE 10.4 km/h 20.9 km/h 67.6% 0.0 mm
10:54 25.7 °C 19.3 °C 1013.9 hPa NNE 11.1 km/h 18.5 km/h 67.9% 0.0 mm
10:59 25.6 °C 19.4 °C 1013.9 hPa NNE 11.1 km/h 19.3 km/h 68.8% 0.0 mm
11:04 25.6 °C 19.4 °C 1013.9 hPa NNE 11.1 km/h 22 km/h 68.5% 0.0 mm
11:09 25.7 °C 19 °C 1013.9 hPa NE 10.1 km/h 22.5 km/h 66.8% 0.0 mm
11:14 26.1 °C 19 °C 1013.8 hPa NE 9.5 km/h 19.3 km/h 65.3% 0.0 mm
11:19 26.3 °C 18.9 °C 1013.8 hPa NE 11.1 km/h 19.3 km/h 63.8% 0.0 mm
11:24 26.4 °C 18.9 °C 1013.8 hPa NE 11.9 km/h 20.9 km/h 63.3% 0.0 mm
11:29 26.4 °C 19.1 °C 1013.8 hPa NNE 12.1 km/h 20.9 km/h 64% 0.0 mm
11:34 26.4 °C 18.7 °C 1013.8 hPa NE 12.2 km/h 19.3 km/h 63% 0.0 mm
11:39 26.5 °C 18.8 °C 1013.8 hPa NE 10.9 km/h 18.5 km/h 62.5% 0.0 mm
11:44 26.7 °C 18.6 °C 1013.8 hPa NE 10.3 km/h 19.3 km/h 61.1% 0.0 mm
11:49 26.7 °C 18.4 °C 1013.8 hPa NE 10.3 km/h 19.3 km/h 60.4% 0.0 mm
11:54 26.8 °C 18.3 °C 1013.9 hPa NE 10.3 km/h 20.9 km/h 59.7% 0.0 mm
11:59 26.8 °C 17.9 °C 1013.9 hPa NE 10.3 km/h 20.9 km/h 58.2% 0.0 mm
12:04 26.7 °C 18 °C 1013.9 hPa NNE 10.3 km/h 20.9 km/h 59% 0.0 mm
12:09 26.8 °C 18 °C 1013.9 hPa NNE 11.4 km/h 20.4 km/h 58.7% 0.0 mm
12:14 27 °C 17.9 °C 1013.8 hPa NE 12.2 km/h 25.9 km/h 57.4% 0.0 mm
12:19 27.1 °C 17.7 °C 1013.8 hPa NE 13.1 km/h 25.7 km/h 56.4% 0.0 mm
12:24 27.2 °C 17.5 °C 1013.8 hPa NNE 13.7 km/h 24.1 km/h 55.5% 0.0 mm
12:29 27.3 °C 17.4 °C 1013.7 hPa ENE 12.1 km/h 20.9 km/h 54.8% 0.0 mm
12:34 27.6 °C 17.4 °C 1013.7 hPa NE 11.1 km/h 22.5 km/h 54% 0.0 mm
12:39 27.7 °C 17.5 °C 1013.8 hPa NNE 10.4 km/h 24.1 km/h 53.9% 0.0 mm
12:44 27.6 °C 17.5 °C 1013.8 hPa NE 10 km/h 24.1 km/h 54% 0.0 mm
12:49 27.4 °C 17.4 °C 1013.8 hPa North 12.5 km/h 22.5 km/h 54.2% 0.0 mm
12:54 27.6 °C 17.4 °C 1013.8 hPa NNE 13.7 km/h 24.1 km/h 53.6% 0.0 mm
12:59 27.9 °C 17.4 °C 1013.6 hPa NE 13.3 km/h 24.1 km/h 53% 0.0 mm
13:04 28.1 °C 17.4 °C 1013.6 hPa NE 13 km/h 24.5 km/h 52.1% 0.0 mm
13:09 28.2 °C 17.1 °C 1013.6 hPa NNE 13 km/h 27.8 km/h 51.1% 0.0 mm
13:14 28.2 °C 17.1 °C 1013.4 hPa NNE 13 km/h 27.4 km/h 51.1% 0.0 mm
13:19 28.2 °C 17 °C 1013.4 hPa North 13.7 km/h 25.9 km/h 51% 0.0 mm
13:24 28.2 °C 17.1 °C 1013.5 hPa NE 14 km/h 25.7 km/h 51.1% 0.0 mm
13:29 28.2 °C 17.2 °C 1013.5 hPa NNE 12.7 km/h 24.1 km/h 51.3% 0.0 mm
13:34 28.5 °C 17.1 °C 1013.5 hPa NNE 11.9 km/h 26.2 km/h 50.3% 0.0 mm
13:39 28.6 °C 17.2 °C 1013.5 hPa NE 11.4 km/h 25.7 km/h 50.2% 0.0 mm
13:44 28.5 °C 16.9 °C 1013.3 hPa ENE 11.1 km/h 22.5 km/h 49.7% 0.0 mm
13:49 28.6 °C 17 °C 1013.3 hPa NE 11.1 km/h 22.5 km/h 49.5% 0.0 mm
13:54 28.6 °C 17.1 °C 1013.3 hPa NE 11.1 km/h 29.6 km/h 49.9% 0.0 mm
13:59 28.3 °C 17.5 °C 1013.3 hPa NE 14.5 km/h 29 km/h 52.3% 0.0 mm
14:04 28.3 °C 17.6 °C 1013.3 hPa NNE 16.1 km/h 29.6 km/h 52.5% 0.0 mm
14:09 28.2 °C 17.5 °C 1013.3 hPa NNE 16.8 km/h 29 km/h 52.5% 0.0 mm
14:14 28.2 °C 17.4 °C 1013.1 hPa NNE 17.2 km/h 29.8 km/h 52.3% 0.0 mm
14:19 28 °C 17.5 °C 1013.1 hPa NE 16.5 km/h 30.6 km/h 53% 0.0 mm
14:24 28.2 °C 17.3 °C 1013.2 hPa NE 16.1 km/h 22.5 km/h 51.6% 0.0 mm
14:29 28.5 °C 17.3 °C 1013.2 hPa NE 13.6 km/h 27.4 km/h 50.7% 0.0 mm
14:34 28.7 °C 17.4 °C 1013.2 hPa ENE 12.2 km/h 27.8 km/h 50.4% 0.0 mm
14:39 29.1 °C 17.1 °C 1013.2 hPa ENE 12.2 km/h 22.5 km/h 48.5% 0.0 mm
14:44 29.3 °C 17.1 °C 1012.9 hPa NE 12.2 km/h 24.1 km/h 47.8% 0.0 mm
14:49 29.2 °C 17 °C 1012.9 hPa NE 12.2 km/h 24.1 km/h 48.1% 0.0 mm
14:54 29 °C 17.2 °C 1012.9 hPa NE 12.2 km/h 24.1 km/h 49% 0.0 mm
14:59 29.1 °C 17 °C 1012.8 hPa NE 13.4 km/h 26.2 km/h 48.2% 0.0 mm
15:04 29.2 °C 17 °C 1012.8 hPa Este 14 km/h 25.7 km/h 48% 0.0 mm
15:09 29.3 °C 17.2 °C 1012.8 hPa NE 12.6 km/h 24.1 km/h 48% 0.0 mm
15:14 29.3 °C 17.1 °C 1012.7 hPa ENE 11.9 km/h 27.8 km/h 47.7% 0.0 mm
15:19 29.3 °C 17.3 °C 1012.7 hPa ENE 12.1 km/h 28.2 km/h 48.3% 0.0 mm
15:24 29.1 °C 17 °C 1012.7 hPa NE 12.2 km/h 27.4 km/h 48.2% 0.0 mm
15:29 28.9 °C 17 °C 1012.7 hPa ENE 14.7 km/h 26.2 km/h 48.7% 0.0 mm
15:34 29 °C 17.4 °C 1012.7 hPa NE 16.4 km/h 25.9 km/h 49.8% 0.0 mm
15:39 29.1 °C 17.4 °C 1012.7 hPa ENE 15.9 km/h 27.8 km/h 49.5% 0.0 mm
15:44 29.1 °C 17.5 °C 1012.6 hPa NE 15.6 km/h 35.9 km/h 49.8% 0.0 mm
15:49 28.9 °C 17.7 °C 1012.6 hPa NE 15.6 km/h 35.4 km/h 50.8% 0.0 mm
15:54 28.7 °C 17.6 °C 1012.6 hPa NE 15.6 km/h 32.2 km/h 51.3% 0.0 mm
15:59 28.8 °C 17.7 °C 1012.5 hPa NE 18.4 km/h 29 km/h 51.2% 0.0 mm
16:04 28.8 °C 17.7 °C 1012.5 hPa NE 19.8 km/h 28.2 km/h 51.1% 0.0 mm
16:09 28.8 °C 17.9 °C 1012.5 hPa NE 17.5 km/h 31.7 km/h 51.8% 0.0 mm
16:14 28.9 °C 18.4 °C 1012.4 hPa ENE 16.1 km/h 32.2 km/h 53.3% 0.0 mm
16:19 28.8 °C 18.4 °C 1012.4 hPa NE 16.7 km/h 29.6 km/h 53.3% 0.0 mm
16:24 28.8 °C 18.3 °C 1012.4 hPa NE 17.2 km/h 29 km/h 53% 0.0 mm
16:29 28.9 °C 18.3 °C 1012.4 hPa NE 15.2 km/h 33.3 km/h 52.8% 0.0 mm
16:34 28.7 °C 18.3 °C 1012.4 hPa NE 13.7 km/h 33.8 km/h 53.5% 0.0 mm
16:39 28.4 °C 18.1 °C 1012.4 hPa NE 17.2 km/h 29.6 km/h 53.7% 0.0 mm
16:44 28.3 °C 18.1 °C 1012.4 hPa ENE 19 km/h 30.6 km/h 54.1% 0.0 mm
16:49 28.2 °C 18.5 °C 1012.4 hPa ENE 17.3 km/h 30.6 km/h 55.8% 0.0 mm
16:54 28.3 °C 18.7 °C 1012.5 hPa ENE 16.4 km/h 30.6 km/h 56.1% 0.0 mm
16:59 28.3 °C 18.7 °C 1012.5 hPa ENE 15.4 km/h 27.8 km/h 55.8% 0.0 mm
17:04 28.3 °C 18.7 °C 1012.5 hPa ENE 14.8 km/h 31.7 km/h 56% 0.0 mm
17:09 28.3 °C 18.8 °C 1012.5 hPa NE 15.3 km/h 32.2 km/h 56.5% 0.0 mm
17:14 28.2 °C 18.8 °C 1012.3 hPa NE 15.6 km/h 29.6 km/h 56.6% 0.0 mm
17:19 28 °C 18.9 °C 1012.3 hPa NE 16.5 km/h 33.5 km/h 57.8% 0.0 mm
17:24 27.8 °C 18.8 °C 1012.3 hPa NE 17.2 km/h 33.8 km/h 58% 0.0 mm
17:29 27.8 °C 18.7 °C 1012.3 hPa NE 17.7 km/h 33.8 km/h 57.8% 0.0 mm
17:34 27.8 °C 18.8 °C 1012.3 hPa ENE 18 km/h 33.5 km/h 58% 0.0 mm
17:39 27.9 °C 18.9 °C 1012.3 hPa Este 16.8 km/h 33.8 km/h 57.9% 0.0 mm
17:44 27.9 °C 19.1 °C 1012.3 hPa ENE 16.1 km/h 29 km/h 58.8% 0.0 mm
17:49 27.8 °C 19 °C 1012.3 hPa ENE 15.3 km/h 33.3 km/h 58.8% 0.0 mm
17:54 27.8 °C 19 °C 1012.3 hPa NE 14.8 km/h 33.8 km/h 58.7% 0.0 mm
17:59 27.8 °C 18.9 °C 1012.3 hPa ENE 14.1 km/h 27.8 km/h 58.3% 0.0 mm
18:04 27.8 °C 18.7 °C 1012.3 hPa ENE 13.7 km/h 27.8 km/h 57.7% 0.0 mm
18:09 27.8 °C 18.5 °C 1012.3 hPa NE 13.2 km/h 28.6 km/h 57% 0.0 mm
18:14 27.8 °C 18.5 °C 1012.3 hPa NE 13 km/h 29.6 km/h 57% 0.0 mm
18:19 27.7 °C 18.6 °C 1012.3 hPa ENE 14.7 km/h 29.6 km/h 57.8% 0.0 mm
18:24 27.6 °C 18.4 °C 1012.3 hPa ENE 15.6 km/h 29 km/h 57.2% 0.0 mm
18:29 27.6 °C 18.6 °C 1012.3 hPa ENE 13.4 km/h 30.6 km/h 57.9% 0.0 mm
18:34 27.5 °C 18.5 °C 1012.3 hPa ENE 12.2 km/h 30.6 km/h 58% 0.0 mm
18:39 27.4 °C 18.1 °C 1012.4 hPa NE 14.3 km/h 28.2 km/h 57.1% 0.0 mm
18:44 27.3 °C 18 °C 1012.4 hPa ENE 15.6 km/h 27.8 km/h 56.9% 0.0 mm
18:49 27.3 °C 17.7 °C 1012.4 hPa NE 14.6 km/h 27.4 km/h 55.7% 0.0 mm
18:54 27.3 °C 18.1 °C 1012.5 hPa NE 14 km/h 25.7 km/h 57% 0.0 mm
18:59 27.3 °C 18 °C 1012.5 hPa ENE 13.8 km/h 24.1 km/h 56.9% 0.0 mm
19:04 27.5 °C 18 °C 1012.5 hPa ENE 13.7 km/h 28.2 km/h 56% 0.0 mm
19:09 27.6 °C 18.3 °C 1012.6 hPa NE 12.7 km/h 28.2 km/h 56.7% 0.0 mm
19:14 27.6 °C 18.4 °C 1012.6 hPa NE 12.2 km/h 27.8 km/h 57.3% 0.0 mm
19:19 27.4 °C 18.2 °C 1012.6 hPa ENE 12.8 km/h 27.4 km/h 57.1% 0.0 mm
19:24 27.3 °C 18.6 °C 1012.6 hPa ENE 13 km/h 25.6 km/h 59% 0.0 mm
19:29 27.3 °C 18.7 °C 1012.6 hPa ENE 13.6 km/h 25.9 km/h 59.3% 0.0 mm
19:34 27.3 °C 19 °C 1012.6 hPa ENE 14 km/h 25.7 km/h 60.6% 0.0 mm
19:39 27.2 °C 18.8 °C 1012.9 hPa ENE 14.9 km/h 28.2 km/h 60.2% 0.0 mm
19:44 27.1 °C 18.9 °C 1012.9 hPa ENE 15.6 km/h 27.4 km/h 60.8% 0.0 mm
19:49 27.1 °C 19.1 °C 1012.9 hPa ENE 13.9 km/h 22.5 km/h 61.8% 0.0 mm
19:54 27.1 °C 18.9 °C 1012.9 hPa ENE 13 km/h 20.9 km/h 61% 0.0 mm
19:59 26.9 °C 18.6 °C 1012.9 hPa ENE 12.5 km/h 22.5 km/h 60.5% 0.0 mm
20:04 26.9 °C 19 °C 1012.9 hPa ENE 12.2 km/h 22.5 km/h 62.1% 0.0 mm
20:09 26.9 °C 19.3 °C 1013.2 hPa NE 11.6 km/h 20.9 km/h 63% 0.0 mm
20:14 26.9 °C 19.3 °C 1013.2 hPa NE 11.1 km/h 20.9 km/h 63% 0.0 mm
20:19 26.8 °C 19.2 °C 1013.2 hPa NE 10.1 km/h 23.7 km/h 63.3% 0.0 mm
20:24 26.6 °C 19.2 °C 1013.4 hPa NE 9.5 km/h 24.1 km/h 63.9% 0.0 mm
Murcia-Puente Tocinos, España
Compliments of Weather Underground - 2.75 mb

La estación de MeteoMurcia.com, publica sus datos en los siguientes proyectos:

Weather Underground PWS IMURCIAP2 Meteoclimatic www.awekas.at

W3Counter
Web Analytics